createdAt,value
2022-07-29T00:02:06.157Z,95072.44
2022-07-29T00:04:35.629Z,95073.13
2022-07-29T00:07:04.025Z,95079.38
2022-07-29T00:09:31.557Z,95068.53
2022-07-29T00:12:01.926Z,95068.31
2022-07-29T00:14:29.584Z,95062.66
2022-07-29T00:16:57.200Z,95052.69
2022-07-29T00:24:29.163Z,95047.00
2022-07-29T00:26:56.845Z,95048.31
2022-07-29T00:29:33.997Z,95046.63
2022-07-29T00:32:02.455Z,95047.91
2022-07-29T00:34:47.957Z,95045.19
2022-07-29T00:37:15.627Z,95043.78
2022-07-29T00:39:44.239Z,95041.09
2022-07-29T00:46:25.017Z,95027.91
2022-07-29T00:48:52.730Z,95031.34
2022-07-29T00:51:20.325Z,95029.84
2022-07-29T00:53:51.333Z,95032.66
2022-07-29T00:56:19.327Z,95027.06
2022-07-29T00:58:49.218Z,95025.31
2022-07-29T01:01:16.902Z,95030.63
2022-07-29T01:08:49.843Z,95039.31
2022-07-29T01:11:18.904Z,95035.31
2022-07-29T01:13:48.397Z,95037.38
2022-07-29T01:16:22.420Z,95043.84
2022-07-29T01:18:55.765Z,95047.63
2022-07-29T01:21:51.544Z,95034.41
2022-07-29T01:24:48.099Z,95033.19
2022-07-29T01:32:28.916Z,95035.66
2022-07-29T01:35:04.021Z,95023.31
2022-07-29T01:37:39.526Z,95020.00
2022-07-29T01:40:12.896Z,95025.38
2022-07-29T01:42:44.459Z,95008.56
2022-07-29T01:45:16.806Z,95011.72
2022-07-29T01:47:50.115Z,95009.81
2022-07-29T01:53:03.653Z,95019.16
2022-07-29T01:55:36.123Z,95011.81
2022-07-29T01:58:06.288Z,95004.28
2022-07-29T02:00:35.420Z,95014.03
2022-07-29T02:03:08.514Z,95007.47
2022-07-29T02:05:36.860Z,95007.47
2022-07-29T02:08:06.138Z,94999.53
2022-07-29T02:15:38.413Z,95008.31
2022-07-29T02:18:09.513Z,95000.06
2022-07-29T02:20:38.939Z,94990.69
2022-07-29T02:23:10.375Z,95005.44
2022-07-29T02:25:39.899Z,94991.22
2022-07-29T02:28:08.982Z,94998.88
2022-07-29T02:30:41.387Z,94998.22
2022-07-29T02:38:27.983Z,94998.28
2022-07-29T02:40:59.012Z,94997.38
2022-07-29T02:43:27.617Z,94991.34
2022-07-29T02:45:57.609Z,94997.53
2022-07-29T02:48:32.982Z,94992.28
2022-07-29T02:51:06.263Z,94991.19
2022-07-29T02:53:35.894Z,94997.72
2022-07-29T03:00:42.125Z,95000.31
2022-07-29T03:03:14.290Z,94994.47
2022-07-29T03:05:42.223Z,94999.19
2022-07-29T03:08:12.908Z,94997.00
2022-07-29T03:10:44.248Z,94989.28
2022-07-29T03:13:13.556Z,94991.34
2022-07-29T03:15:44.850Z,95004.47
2022-07-29T03:22:43.903Z,95004.94
2022-07-29T03:25:12.494Z,95006.44
2022-07-29T03:27:40.487Z,95010.78
2022-07-29T03:30:09.541Z,95009.25
2022-07-29T03:32:37.376Z,95013.69
2022-07-29T03:35:06.537Z,95014.91
2022-07-29T03:37:34.336Z,95014.00
2022-07-29T03:45:19.710Z,95014.44
2022-07-29T03:47:57.077Z,95003.31
2022-07-29T03:50:28.331Z,95003.31
2022-07-29T03:52:55.988Z,94999.63
2022-07-29T03:55:24.373Z,94996.59
2022-07-29T03:57:52.418Z,94996.59
2022-07-29T04:00:20.647Z,95003.56
2022-07-29T04:07:51.324Z,95006.72
2022-07-29T04:10:25.234Z,95007.34
2022-07-29T04:12:59.654Z,95014.47
2022-07-29T04:15:30.955Z,95013.09
2022-07-29T04:17:59.783Z,95017.31
2022-07-29T04:20:27.438Z,95023.44
2022-07-29T04:22:56.757Z,95029.38
2022-07-29T04:29:18.360Z,95034.38
2022-07-29T04:31:46.033Z,95032.44
2022-07-29T04:34:14.458Z,95032.34
2022-07-29T04:36:42.045Z,95040.16
2022-07-29T04:39:10.497Z,95042.97
2022-07-29T04:41:38.082Z,95040.06
2022-07-29T04:44:07.022Z,95037.63
2022-07-29T04:51:38.273Z,95041.19
2022-07-29T04:54:06.606Z,95036.41
2022-07-29T04:56:33.927Z,95037.03
2022-07-29T04:59:01.345Z,95045.66
2022-07-29T05:01:28.816Z,95051.81
2022-07-29T05:04:00.264Z,95051.72
2022-07-29T05:06:28.294Z,95050.06
2022-07-29T05:13:59.415Z,95051.66
2022-07-29T05:16:27.190Z,95056.69
2022-07-29T05:18:54.623Z,95053.69
2022-07-29T05:21:22.164Z,95056.09
2022-07-29T05:23:49.707Z,95049.31
2022-07-29T05:26:17.365Z,95058.59
2022-07-29T05:28:44.893Z,95059.88
2022-07-29T05:33:55.366Z,95063.19
2022-07-29T05:36:22.816Z,95053.75
2022-07-29T05:38:51.324Z,95066.25
2022-07-29T05:41:18.946Z,95058.34
2022-07-29T05:43:46.444Z,95064.97
2022-07-29T05:46:14.401Z,95061.31
2022-07-29T05:48:42.082Z,95066.50
2022-07-29T05:56:13.572Z,95081.53
2022-07-29T05:58:41.031Z,95076.22
2022-07-29T06:01:08.506Z,95082.81
2022-07-29T06:03:38.123Z,95079.16
2022-07-29T06:06:06.711Z,95077.88
2022-07-29T06:08:34.718Z,95077.56
2022-07-29T06:11:02.276Z,95073.53
2022-07-29T06:18:33.276Z,95075.66
2022-07-29T06:21:00.876Z,95071.03
2022-07-29T06:23:28.590Z,95073.59
2022-07-29T06:25:56.150Z,95069.53
2022-07-29T06:28:23.802Z,95070.16
2022-07-29T06:30:51.265Z,95063.81
2022-07-29T06:33:19.306Z,95072.41
2022-07-29T06:41:02.602Z,95079.41
2022-07-29T06:43:34.066Z,95071.94
2022-07-29T06:46:02.522Z,95076.84
2022-07-29T06:48:30.256Z,95081.91
2022-07-29T06:50:57.878Z,95074.28
2022-07-29T06:53:25.743Z,95075.13
2022-07-29T06:55:54.022Z,95078.91
2022-07-29T07:03:29.856Z,95081.00
2022-07-29T07:05:57.948Z,95081.47
2022-07-29T07:08:27.661Z,95080.91
2022-07-29T07:10:56.816Z,95081.44
2022-07-29T07:13:24.525Z,95065.66
2022-07-29T07:15:52.554Z,95071.09
2022-07-29T07:18:20.379Z,95068.91
2022-07-29T07:25:25.993Z,95064.75
2022-07-29T07:27:53.632Z,95067.91
2022-07-29T07:30:21.209Z,95065.63
2022-07-29T07:32:48.901Z,95066.59
2022-07-29T07:35:16.519Z,95068.28
2022-07-29T07:37:44.161Z,95066.44
2022-07-29T07:40:12.821Z,95058.00
2022-07-29T07:47:49.883Z,95063.41
2022-07-29T07:50:19.191Z,95054.75
2022-07-29T07:52:51.770Z,95059.75
2022-07-29T07:55:19.977Z,95061.88
2022-07-29T07:57:48.115Z,95057.56
2022-07-29T08:00:17.690Z,95063.63
2022-07-29T08:02:46.183Z,95054.72
2022-07-29T08:10:39.855Z,95049.97
2022-07-29T08:13:09.331Z,95059.69
2022-07-29T08:15:37.052Z,95057.59
2022-07-29T08:18:08.684Z,95060.56
2022-07-29T08:20:38.488Z,95060.28
2022-07-29T08:23:08.982Z,95056.59
2022-07-29T08:25:40.096Z,95055.91
2022-07-29T08:30:45.917Z,95050.34
2022-07-29T08:33:13.466Z,95053.97
2022-07-29T08:35:41.205Z,95059.50
2022-07-29T08:38:08.984Z,95046.84
2022-07-29T08:40:36.483Z,95049.94
2022-07-29T08:43:07.963Z,95057.00
2022-07-29T08:45:47.586Z,95041.81
2022-07-29T08:53:16.746Z,95047.59
2022-07-29T08:55:46.988Z,95044.41
2022-07-29T08:58:15.902Z,95042.34
2022-07-29T09:00:45.877Z,95037.41
2022-07-29T09:03:16.489Z,95042.22
2022-07-29T09:05:48.066Z,95037.91
2022-07-29T09:08:18.644Z,95037.13
2022-07-29T09:15:11.337Z,95030.66
2022-07-29T09:17:43.810Z,95039.22
2022-07-29T09:20:13.042Z,95023.63
2022-07-29T09:22:42.247Z,95028.47
2022-07-29T09:25:12.724Z,95028.56
2022-07-29T09:27:40.417Z,95033.78
2022-07-29T09:30:11.065Z,95030.44
2022-07-29T09:36:54.173Z,95016.94
2022-07-29T09:39:29.881Z,95020.63
2022-07-29T09:41:59.333Z,95009.50
2022-07-29T09:44:27.636Z,95016.47
2022-07-29T09:47:03.122Z,95010.53
2022-07-29T09:49:30.817Z,95004.19
2022-07-29T09:52:05.674Z,95001.28
2022-07-29T09:59:37.032Z,94990.44
2022-07-29T10:02:23.482Z,94987.78
2022-07-29T10:04:51.578Z,94989.06
2022-07-29T10:07:19.737Z,94987.56
2022-07-29T10:09:54.966Z,94980.97
2022-07-29T10:12:23.267Z,94978.09
2022-07-29T10:14:52.231Z,94978.25
2022-07-29T10:22:43.670Z,94967.94
2022-07-29T10:25:08.572Z,94970.03
2022-07-29T10:27:36.694Z,94962.88
2022-07-29T10:30:05.472Z,94961.53
2022-07-29T10:32:51.155Z,94956.22
2022-07-29T10:35:37.230Z,94950.16
2022-07-29T10:43:18.177Z,94944.66
2022-07-29T10:45:50.187Z,94943.25
2022-07-29T10:48:18.130Z,94936.91
2022-07-29T10:51:01.350Z,94941.22
2022-07-29T10:53:48.673Z,94938.41
2022-07-29T10:56:27.435Z,94933.44
2022-07-29T11:05:08.820Z,94929.44
2022-07-29T11:07:45.615Z,94926.88
2022-07-29T11:10:26.875Z,94925.81
2022-07-29T11:12:59.048Z,94920.03
2022-07-29T11:15:28.500Z,94918.66
2022-07-29T11:18:14.965Z,94910.38
2022-07-29T11:23:27.071Z,94912.25
2022-07-29T11:26:18.846Z,94904.44
2022-07-29T11:28:58.521Z,94906.47
2022-07-29T11:31:38.304Z,94895.13
2022-07-29T11:34:22.817Z,94896.25
2022-07-29T11:37:27.720Z,94906.09
2022-07-29T11:43:52.184Z,94899.84
2022-07-29T11:46:47.021Z,94904.09
2022-07-29T11:49:19.730Z,94885.72
2022-07-29T11:51:52.654Z,94893.22
2022-07-29T11:54:27.403Z,94887.34
2022-07-29T11:56:56.019Z,94893.94
2022-07-29T11:59:33.517Z,94886.53
2022-07-29T12:07:00.457Z,94884.53
2022-07-29T12:09:28.332Z,94889.25
2022-07-29T12:12:08.317Z,94883.31
2022-07-29T12:14:36.252Z,94879.44
2022-07-29T12:17:03.844Z,94880.31
2022-07-29T12:19:44.108Z,94877.56
2022-07-29T12:22:12.938Z,94873.34
2022-07-29T12:29:58.207Z,94866.31
2022-07-29T12:32:32.798Z,94866.06
2022-07-29T12:35:01.448Z,94867.22
2022-07-29T12:37:41.048Z,94851.03
2022-07-29T12:40:12.283Z,94848.34
2022-07-29T12:42:41.245Z,94846.16
2022-07-29T12:50:27.848Z,94842.81
2022-07-29T12:52:55.630Z,94841.94
2022-07-29T12:55:52.260Z,94842.25
2022-07-29T12:58:33.765Z,94832.38
2022-07-29T13:01:07.291Z,94841.50
2022-07-29T13:03:57.755Z,94830.59
2022-07-29T13:11:40.835Z,94819.00
2022-07-29T13:14:11.312Z,94817.44
2022-07-29T13:17:04.492Z,94820.53
2022-07-29T13:19:41.191Z,94817.50
2022-07-29T13:22:09.117Z,94807.13
2022-07-29T13:24:48.768Z,94816.59
2022-07-29T13:31:10.085Z,94810.28
2022-07-29T13:33:37.732Z,94805.66
2022-07-29T13:36:05.598Z,94804.72
2022-07-29T13:38:33.250Z,94798.47
2022-07-29T13:41:01.714Z,94801.19
2022-07-29T13:43:29.581Z,94795.66
2022-07-29T13:45:57.649Z,94792.47
2022-07-29T13:52:35.955Z,94814.91
2022-07-29T13:55:04.568Z,94812.00
2022-07-29T13:57:32.725Z,94816.56
2022-07-29T14:00:00.240Z,94807.53
2022-07-29T14:02:28.029Z,94810.06
2022-07-29T14:04:56.137Z,94809.09
2022-07-29T14:07:24.135Z,94809.66
2022-07-29T14:14:48.007Z,94800.81
2022-07-29T14:17:15.629Z,94802.00
2022-07-29T14:19:43.471Z,94790.94
2022-07-29T14:22:11.325Z,94792.41
2022-07-29T14:24:39.863Z,94788.72
2022-07-29T14:27:08.536Z,94794.59
2022-07-29T14:29:37.945Z,94791.38
2022-07-29T14:36:43.805Z,94782.19
2022-07-29T14:39:11.560Z,94780.00
2022-07-29T14:41:39.276Z,94787.81
2022-07-29T14:44:07.037Z,94790.44
2022-07-29T14:46:34.861Z,94795.81
2022-07-29T14:49:02.622Z,94794.66
2022-07-29T14:51:32.273Z,94792.16
2022-07-29T14:56:46.336Z,94788.38
2022-07-29T14:59:14.584Z,94791.09
2022-07-29T15:01:42.167Z,94793.22
2022-07-29T15:04:09.780Z,94795.09
2022-07-29T15:06:38.534Z,94787.25
2022-07-29T15:09:06.022Z,94791.22
2022-07-29T15:11:37.875Z,94790.34
2022-07-29T15:16:47.024Z,94786.69
2022-07-29T15:19:15.954Z,94781.63
2022-07-29T15:21:48.482Z,94783.13
2022-07-29T15:24:16.985Z,94789.28
2022-07-29T15:26:45.214Z,94779.44
2022-07-29T15:29:13.791Z,94776.69
2022-07-29T15:31:41.799Z,94783.88
2022-07-29T15:38:32.104Z,94784.81
2022-07-29T15:40:59.752Z,94787.50
2022-07-29T15:43:27.610Z,94787.31
2022-07-29T15:46:13.544Z,94787.63
2022-07-29T15:48:41.294Z,94775.84
2022-07-29T15:51:09.151Z,94784.59
2022-07-29T15:53:37.708Z,94787.47
2022-07-29T16:00:44.353Z,94792.09
2022-07-29T16:03:12.212Z,94775.09
2022-07-29T16:05:39.917Z,94792.50
2022-07-29T16:08:07.612Z,94785.81
2022-07-29T16:10:35.813Z,94789.34
2022-07-29T16:13:03.451Z,94792.44
2022-07-29T16:15:31.248Z,94790.47
2022-07-29T16:22:57.914Z,94778.94
2022-07-29T16:25:43.867Z,94774.69
2022-07-29T16:28:13.245Z,94778.50
2022-07-29T16:30:40.932Z,94778.84
2022-07-29T16:33:08.692Z,94760.41
2022-07-29T16:35:39.681Z,94780.44
2022-07-29T16:38:08.968Z,94775.28
2022-07-29T16:43:14.801Z,94773.41
2022-07-29T16:45:46.253Z,94779.13
2022-07-29T16:48:14.991Z,94784.94
2022-07-29T16:50:44.972Z,94786.94
2022-07-29T16:53:12.797Z,94787.50
2022-07-29T16:55:42.330Z,94793.75
2022-07-29T16:58:10.436Z,94785.34
2022-07-29T17:05:11.894Z,94778.03
2022-07-29T17:07:39.923Z,94780.63
2022-07-29T17:10:09.536Z,94779.91
2022-07-29T17:12:40.033Z,94771.22
2022-07-29T17:15:10.367Z,94780.47
2022-07-29T17:17:56.491Z,94779.63
2022-07-29T17:20:27.135Z,94773.78
2022-07-29T17:27:06.113Z,94785.34
2022-07-29T17:29:34.942Z,94789.47
2022-07-29T17:32:03.149Z,94787.88
2022-07-29T17:34:31.188Z,94792.69
2022-07-29T17:36:58.923Z,94799.13
2022-07-29T17:39:26.791Z,94798.75
2022-07-29T17:41:54.381Z,94795.72
2022-07-29T17:49:26.443Z,94800.38
2022-07-29T17:51:57.659Z,94787.03
2022-07-29T17:54:29.365Z,94801.72
2022-07-29T17:56:57.502Z,94804.06
2022-07-29T17:59:25.227Z,94801.69
2022-07-29T18:01:52.936Z,94802.75
2022-07-29T18:04:22.805Z,94801.38
2022-07-29T18:11:52.164Z,94814.03
2022-07-29T18:14:19.823Z,94815.97
2022-07-29T18:16:47.542Z,94814.66
2022-07-29T18:19:15.674Z,94817.09
2022-07-29T18:21:54.003Z,94819.53
2022-07-29T18:24:24.750Z,94819.47
2022-07-29T18:26:53.394Z,94828.75
2022-07-29T18:34:09.869Z,94839.53
2022-07-29T18:36:37.568Z,94838.44
2022-07-29T18:39:05.257Z,94839.63
2022-07-29T18:41:33.010Z,94833.41
2022-07-29T18:44:00.656Z,94843.72
2022-07-29T18:46:29.165Z,94836.25
2022-07-29T18:48:57.182Z,94843.59
2022-07-29T18:56:00.266Z,94851.84
2022-07-29T18:58:28.160Z,94846.00
2022-07-29T19:00:55.872Z,94852.75
2022-07-29T19:03:23.610Z,94859.66
2022-07-29T19:05:51.911Z,94856.91
2022-07-29T19:08:19.571Z,94857.50
2022-07-29T19:10:47.391Z,94859.22
2022-07-29T19:18:15.991Z,94865.50
2022-07-29T19:20:43.787Z,94863.44
2022-07-29T19:23:11.413Z,94867.38
2022-07-29T19:25:53.267Z,94870.97
2022-07-29T19:28:22.101Z,94866.69
2022-07-29T19:30:50.007Z,94873.28
2022-07-29T19:33:19.201Z,94876.84
2022-07-29T19:40:47.694Z,94884.38
2022-07-29T19:43:50.994Z,94885.53
2022-07-29T19:46:03.053Z,94881.31
2022-07-29T19:48:30.752Z,94887.50
2022-07-29T19:50:58.768Z,94888.00
2022-07-29T19:53:26.450Z,94895.47
2022-07-29T19:55:55.117Z,94887.97
2022-07-29T20:02:43.063Z,94890.06
2022-07-29T20:05:11.195Z,94879.06
2022-07-29T20:07:39.682Z,94882.75
2022-07-29T20:10:09.348Z,94876.56
2022-07-29T20:12:38.158Z,94880.84
2022-07-29T20:15:06.969Z,94878.47
2022-07-29T20:17:39.411Z,94876.41
2022-07-29T20:25:09.467Z,94876.63
2022-07-29T20:27:40.001Z,94877.19
2022-07-29T20:30:08.599Z,94878.22
2022-07-29T20:32:36.145Z,94881.09
2022-07-29T20:35:03.927Z,94873.47
2022-07-29T20:37:32.181Z,94881.28
2022-07-29T20:39:59.694Z,94885.03
2022-07-29T20:47:26.461Z,94888.03
2022-07-29T20:49:54.100Z,94882.72
2022-07-29T20:52:23.057Z,94890.34
2022-07-29T20:54:50.678Z,94887.13
2022-07-29T20:57:18.353Z,94875.31
2022-07-29T21:00:07.895Z,94875.63
2022-07-29T21:02:36.916Z,94873.72
2022-07-29T21:10:09.319Z,94876.59
2022-07-29T21:12:38.186Z,94883.28
2022-07-29T21:15:06.629Z,94879.59
2022-07-29T21:17:35.677Z,94876.75
2022-07-29T21:20:04.923Z,94876.31
2022-07-29T21:22:32.431Z,94880.09
2022-07-29T21:25:00.399Z,94898.81
2022-07-29T21:32:50.673Z,94899.09
2022-07-29T21:35:45.108Z,94907.56
2022-07-29T21:38:05.902Z,94894.13
2022-07-29T21:40:33.397Z,94902.72
2022-07-29T21:43:00.921Z,94907.31
2022-07-29T21:45:28.598Z,94902.25
2022-07-29T21:47:56.948Z,94905.19
2022-07-29T21:55:28.003Z,94913.34
2022-07-29T21:57:57.709Z,94913.47
2022-07-29T22:00:25.497Z,94905.81
2022-07-29T22:02:53.468Z,94919.28
2022-07-29T22:05:21.626Z,94914.59
2022-07-29T22:07:55.305Z,94924.38
2022-07-29T22:10:25.129Z,94930.13
2022-07-29T22:17:56.006Z,94929.81
2022-07-29T22:20:23.985Z,94934.31
2022-07-29T22:22:51.484Z,94928.72
2022-07-29T22:25:19.095Z,94925.66
2022-07-29T22:27:46.819Z,94927.28
2022-07-29T22:30:14.804Z,94923.28
2022-07-29T22:32:42.426Z,94929.84
2022-07-29T22:38:36.791Z,94927.34
2022-07-29T22:41:04.324Z,94923.56
2022-07-29T22:43:31.806Z,94926.25
2022-07-29T22:45:59.293Z,94921.16
2022-07-29T22:48:26.872Z,94927.13
2022-07-29T22:50:54.378Z,94921.94
2022-07-29T22:53:21.989Z,94925.34
2022-07-29T23:00:53.003Z,94919.63
2022-07-29T23:03:21.894Z,94926.66
2022-07-29T23:05:51.030Z,94932.91
2022-07-29T23:08:19.015Z,94928.22
2022-07-29T23:10:46.928Z,94926.63
2022-07-29T23:13:14.685Z,94930.22
2022-07-29T23:15:42.293Z,94928.63
2022-07-29T23:23:09.064Z,94922.44
2022-07-29T23:25:36.618Z,94922.44
2022-07-29T23:28:04.852Z,94914.69
2022-07-29T23:30:32.435Z,94914.16
2022-07-29T23:32:59.899Z,94920.81
2022-07-29T23:35:28.072Z,94926.81
2022-07-29T23:37:55.579Z,94916.28
2022-07-29T23:45:39.972Z,94919.94
2022-07-29T23:48:12.578Z,94906.91
2022-07-29T23:50:40.056Z,94907.28
2022-07-29T23:53:07.605Z,94911.28
2022-07-29T23:55:36.877Z,94907.38
2022-07-29T23:58:05.827Z,94912.94
